Hachinohe Air Base, Japan

5:17 PM JST on February 14, 2016 (GMT +0900)
Misawa AB | | Change Station
CLOSE
Current Station
Personal Weather Station
Location: Misawa-shi, AOMORI-KEN
Elevation: 141 ft
Nearby Weather Stations

Elev 141 ft 40.69 °N, 141.36 °E | Updated 23 seconds ago

Mostly Cloudy
Mostly Cloudy
50.7 °F
Feels Like 50.7 °F
N
10.3
Wind Variable Wind from WNW
Gusts 12.3 mph

Today
High -- | Low -- °F
--% Chance of Precip.
Yesterday
High -- | Low -- °F
Precip. -- in
Pressure 29.24 in
Visibility 6.2 miles
Clouds Few 2000 ft
Mostly Cloudy 4000 ft
Mostly Cloudy 10000 ft
Dew Point 34 °F
Humidity 53%
Rainfall 0.05 in
Snow Depth Not available.
6:30 AM 5:06 PM
Waxing Crescent, 39% visible
SPECI RJSA 140804Z 21026G36KT 9999 FEW020 BKN040 BKN100 08/04 Q0990 RMK 1CU020 5CU040 6AC100 A2925 P/RR
Pressure 29.24 in
Visibility 6.2 miles
Clouds Few 2000 ft
Mostly Cloudy 4000 ft
Mostly Cloudy 10000 ft
Dew Point 34 °F
Humidity 53%
Rainfall 0.05 in
Snow Depth Not available.
6:30 AM 5:06 PM
Waxing Crescent, 39% visible
SPECI RJSA 140804Z 21026G36KT 9999 FEW020 BKN040 BKN100 08/04 Q0990 RMK 1CU020 5CU040 6AC100 A2925 P/RR

10-Day Weather Forecast

No radar image for this location.
×

Almanac

Astronomy

Feb. 14, 2016 Rise Set
Actual Time
Civil Twilight
Nautical Twilight
Astronomical Twilight
Moon
Length of Visible Light
Length of Day
Tomorrow will be .
, % of the Moon is Illuminated

Today's Extremes

Country Highs Country Lows

Community

WunderPhotos

Upload Photos

1,892,757 photos uploaded!

WunderBlog® & News

Nearby

Air Quality

  Air Quality AQ Index Pollutant
Not available.

Snow Depth

Station Depth Elevation

Earthquake Activity

City Distance Mag. Time & Date
Minimum magnitude displayed is 2.5.

Coastal Water Temperatures

Place Temperature

Stations

Nearby Weather Stations

Station Location Temp. Windchill Dew Point Humidity Wind Precip. Elev Updated Type